Time;durP1;ratioP1;P1;durP2;ratioP2;P2;SDS_P1;SDS_P2;PMS_P1;PMS_P2;Temp;Humidity;BMP_temperature;BMP_pressure;BME280_temperature;BME280_humidity;BME280_pressure;Samples;Min_cycle;Max_cycle;Signal;HPM_P1;HPM_P2
2023/01/12 00:01:14;;;;;;;6.75;1.40;;;;;;;;;;5028840;28;20021;-56
2023/01/12 00:03:39;;;;;;;7.65;1.20;;;;;;;;;;5020526;28;20021;-55
2023/01/12 00:06:06;;;;;;;5.13;1.15;;;;;;;;;;5028962;28;20093;-54
2023/01/12 00:08:32;;;;;;;9.15;1.20;;;;;;;;;;5028026;28;20044;-56
2023/01/12 00:10:57;;;;;;;8.75;1.50;;;;;;;;;;5029476;28;20017;-56
2023/01/12 00:13:22;;;;;;;6.57;1.35;;;;;;;;;;5030943;28;20068;-56
2023/01/12 00:18:31;;;;;;;6.63;1.42;;;;;;;;;;5021916;28;20395;-55
2023/01/12 00:20:57;;;;;;;8.57;1.40;;;;;;;;;;5025931;28;20022;-56
2023/01/12 00:23:25;;;;;;;8.07;1.35;;;;;;;;;;5030567;28;20087;-56
2023/01/12 00:25:51;;;;;;;5.47;1.00;;;;;;;;;;5023604;28;20104;-55
2023/01/12 00:28:16;;;;;;;7.25;1.30;;;;;;;;;;5021120;28;20408;-57
2023/01/12 00:30:41;;;;;;;5.00;1.20;;;;;;;;;;5018348;28;20041;-56
2023/01/12 00:33:07;;;;;;;6.97;1.10;;;;;;;;;;5029963;28;20025;-56
2023/01/12 00:35:34;;;;;;;8.13;1.70;;;;;;;;;;5026745;28;20108;-56
2023/01/12 00:37:59;;;;;;;;;;;;;;;;;;5028720;28;20084;-56
2023/01/12 00:40:24;;;;;;;6.07;1.10;;;;;;;;;;5030226;28;19941;-56
2023/01/12 00:45:33;;;;;;;4.72;0.85;;;;;;;;;;5022261;28;20037;-55
2023/01/12 00:47:58;;;;;;;5.40;1.13;;;;;;;;;;5030074;28;20041;-55
2023/01/12 00:50:23;;;;;;;6.18;0.82;;;;;;;;;;5029345;28;20533;-54
2023/01/12 00:52:48;;;;;;;5.20;0.80;;;;;;;;;;5028928;28;20067;-56
2023/01/12 00:55:13;;;;;;;6.03;1.00;;;;;;;;;;5027799;28;20609;-55
2023/01/12 00:57:39;;;;;;;5.47;1.10;;;;;;;;;;5028470;28;20032;-56
2023/01/12 01:00:04;;;;;;;6.90;0.80;;;;;;;;;;5025880;28;20045;-56
2023/01/12 01:02:29;;;;;;;5.57;0.82;;;;;;;;;;5028755;28;20036;-55
2023/01/12 01:04:55;;;;;;;5.25;1.08;;;;;;;;;;5027765;28;20010;-56
2023/01/12 01:07:23;;;;;;;6.43;1.10;;;;;;;;;;5028611;28;20120;-57
2023/01/12 01:09:48;;;;;;;4.75;1.05;;;;;;;;;;5025754;28;20532;-56
2023/01/12 01:12:13;;;;;;;4.95;0.90;;;;;;;;;;5025715;28;20033;-54
2023/01/12 01:14:38;;;;;;;7.85;0.90;;;;;;;;;;5027881;28;20402;-55
2023/01/12 01:17:04;;;;;;;4.35;0.50;;;;;;;;;;5028614;28;20013;-56
2023/01/12 01:19:29;;;;;;;6.20;0.82;;;;;;;;;;5027144;28;20110;-58
2023/01/12 01:21:54;;;;;;;5.40;0.80;;;;;;;;;;5026358;28;20386;-56
2023/01/12 01:24:19;;;;;;;4.57;0.73;;;;;;;;;;5027142;28;20060;-56
2023/01/12 01:26:44;;;;;;;4.90;0.90;;;;;;;;;;5028761;28;20049;-56
2023/01/12 01:29:10;;;;;;;4.23;0.70;;;;;;;;;;5026671;28;20025;-56
2023/01/12 01:31:35;;;;;;;6.43;0.60;;;;;;;;;;5027800;28;20021;-56
2023/01/12 01:34:00;;;;;;;8.60;0.80;;;;;;;;;;5026757;28;20033;-56
2023/01/12 01:36:25;;;;;;;3.97;0.90;;;;;;;;;;5026675;28;20087;-55
2023/01/12 01:38:51;;;;;;;6.13;0.90;;;;;;;;;;5027306;28;20029;-55
2023/01/12 01:41:18;;;;;;;7.80;1.25;;;;;;;;;;5026419;28;20025;-56
2023/01/12 01:43:49;;;;;;;4.80;0.80;;;;;;;;;;5028063;28;20104;-55
2023/01/12 01:46:15;;;;;;;5.00;0.73;;;;;;;;;;5028714;28;20045;-57
2023/01/12 01:48:41;;;;;;;4.15;0.88;;;;;;;;;;5031039;28;20112;-56
2023/01/12 01:51:11;;;;;;;4.32;0.77;;;;;;;;;;5027214;28;20367;-57
2023/01/12 01:53:38;;;;;;;4.47;0.80;;;;;;;;;;5027363;28;20021;-56
2023/01/12 01:56:06;;;;;;;6.10;0.82;;;;;;;;;;5026851;28;20500;-56
2023/01/12 01:58:34;;;;;;;5.15;0.63;;;;;;;;;;5026147;28;20360;-56
2023/01/12 02:01:00;;;;;;;8.80;1.23;;;;;;;;;;5020717;28;20029;-56
2023/01/12 02:03:26;;;;;;;6.57;0.70;;;;;;;;;;5025271;28;20548;-56
2023/01/12 02:05:51;;;;;;;3.03;0.55;;;;;;;;;;5021022;28;20030;-54
2023/01/12 02:08:27;;;;;;;3.85;0.50;;;;;;;;;;5027405;28;20041;-55
2023/01/12 02:10:54;;;;;;;4.05;0.68;;;;;;;;;;5027846;28;20386;-56
2023/01/12 02:16:20;;;;;;;3.20;0.52;;;;;;;;;;5023897;28;19917;-57
2023/01/12 02:18:50;;;;;;;5.70;0.75;;;;;;;;;;5023124;28;20022;-56
2023/01/12 02:21:39;;;;;;;4.45;0.60;;;;;;;;;;5025182;28;20490;-56
2023/01/12 02:24:23;;;;;;;7.60;1.13;;;;;;;;;;5025726;28;20025;-56
2023/01/12 02:27:02;;;;;;;4.85;0.65;;;;;;;;;;5022269;28;20037;-55
2023/01/12 02:29:36;;;;;;;3.42;0.60;;;;;;;;;;5025384;28;20057;-56
2023/01/12 02:32:04;;;;;;;5.57;0.70;;;;;;;;;;5026255;28;20036;-56
2023/01/12 02:34:29;;;;;;;4.60;0.50;;;;;;;;;;5023603;28;20505;-56
2023/01/12 02:36:59;;;;;;;6.22;0.85;;;;;;;;;;5020474;28;20451;-56
2023/01/12 02:39:27;;;;;;;7.38;0.93;;;;;;;;;;5019459;28;20036;-56
2023/01/12 02:44:45;;;;;;;4.28;0.70;;;;;;;;;;5032303;28;20116;-56
2023/01/12 02:47:14;;;;;;;27.63;2.30;;;;;;;;;;5032310;28;20120;-56
2023/01/12 02:49:43;;;;;;;2.88;0.60;;;;;;;;;;5022736;28;20030;-56
2023/01/12 02:52:09;;;;;;;6.90;0.80;;;;;;;;;;5029616;28;20022;-56
2023/01/12 02:54:35;;;;;;;5.60;0.90;;;;;;;;;;5027794;28;20029;-56
2023/01/12 02:57:02;;;;;;;4.18;0.60;;;;;;;;;;5027022;28;20410;-56
2023/01/12 02:59:30;;;;;;;4.80;0.70;;;;;;;;;;5029785;28;20471;-56
2023/01/12 03:01:57;;;;;;;5.97;1.20;;;;;;;;;;5031388;28;20025;-55
2023/01/12 03:04:23;;;;;;;6.13;0.90;;;;;;;;;;5029411;28;20029;-55
2023/01/12 03:06:54;;;;;;;4.07;0.70;;;;;;;;;;5027829;28;20414;-56
2023/01/12 03:09:19;;;;;;;6.07;0.80;;;;;;;;;;5029255;28;20021;-56
2023/01/12 03:11:45;;;;;;;4.30;0.63;;;;;;;;;;5031797;28;20020;-56
2023/01/12 03:14:11;;;;;;;7.10;0.82;;;;;;;;;;5030660;28;20045;-56
2023/01/12 03:16:37;;;;;;;5.63;0.80;;;;;;;;;;5030970;28;20022;-56
2023/01/12 03:19:12;;;;;;;3.55;0.68;;;;;;;;;;5031733;28;20045;-56
2023/01/12 03:21:39;;;;;;;4.45;0.65;;;;;;;;;;5032064;28;20029;-55
2023/01/12 03:24:09;;;;;;;6.85;0.90;;;;;;;;;;5032320;28;20017;-55
2023/01/12 03:26:35;;;;;;;4.60;1.00;;;;;;;;;;5032638;28;20021;-56
2023/01/12 03:29:12;;;;;;;8.45;0.80;;;;;;;;;;5031330;28;20049;-56
2023/01/12 03:31:37;;;;;;;4.63;0.60;;;;;;;;;;5031944;28;20044;-56
2023/01/12 03:34:03;;;;;;;5.03;0.70;;;;;;;;;;5031903;28;20021;-61
2023/01/12 03:36:32;;;;;;;6.15;0.80;;;;;;;;;;5032445;28;20029;-56
2023/01/12 03:39:00;;;;;;;4.60;0.77;;;;;;;;;;5028134;28;20053;-56
2023/01/12 03:41:43;;;;;;;5.32;0.93;;;;;;;;;;5032539;28;20049;-55
2023/01/12 03:44:14;;;;;;;4.68;0.70;;;;;;;;;;5030125;28;20017;-56
2023/01/12 03:46:41;;;;;;;5.85;0.90;;;;;;;;;;5028781;28;20487;-55
2023/01/12 03:49:16;;;;;;;4.70;0.75;;;;;;;;;;5030394;28;20033;-55
2023/01/12 03:51:44;;;;;;;6.57;0.85;;;;;;;;;;5025716;28;20049;-55
2023/01/12 03:54:10;;;;;;;2.90;0.50;;;;;;;;;;5024393;28;20028;-56
2023/01/12 03:56:36;;;;;;;4.60;0.63;;;;;;;;;;5023418;28;20104;-56
2023/01/12 03:59:02;;;;;;;9.05;0.90;;;;;;;;;;5030147;28;20382;-56
2023/01/12 04:01:27;;;;;;;4.50;0.70;;;;;;;;;;5028909;28;20061;-56
2023/01/12 04:03:52;;;;;;;4.72;0.77;;;;;;;;;;5031203;28;20632;-56
2023/01/12 04:06:17;;;;;;;6.50;0.90;;;;;;;;;;5031015;28;20025;-56
2023/01/12 04:08:42;;;;;;;4.07;0.70;;;;;;;;;;5030749;28;20053;-56
2023/01/12 04:13:52;;;;;;;4.75;0.68;;;;;;;;;;5027071;28;20441;-56
2023/01/12 04:16:17;;;;;;;10.63;0.95;;;;;;;;;;5026920;28;20017;-56
2023/01/12 04:18:43;;;;;;;4.15;0.82;;;;;;;;;;5035770;28;20059;-56
2023/01/12 04:22:41;;;;;;;4.20;0.70;;;;;;;;;;5040173;28;20096;-55
2023/01/12 04:23:53;;;;;;;3.25;0.68;;;;;;;;;;5024179;28;20036;-56
2023/01/12 04:26:18;;;;;;;5.53;0.70;;;;;;;;;;5030052;28;20089;-56
2023/01/12 04:28:43;;;;;;;4.93;1.17;;;;;;;;;;5026999;28;20033;-54
2023/01/12 04:31:08;;;;;;;5.70;0.75;;;;;;;;;;5027473;28;20021;-56
2023/01/12 04:33:33;;;;;;;5.72;1.13;;;;;;;;;;5029443;28;20463;-56
2023/01/12 04:35:58;;;;;;;5.78;0.80;;;;;;;;;;5025165;28;20017;-56
2023/01/12 04:38:24;;;;;;;2.72;0.60;;;;;;;;;;5029247;28;20052;-56
2023/01/12 04:40:52;;;;;;;5.80;0.75;;;;;;;;;;5030717;28;20068;-56
2023/01/12 04:43:17;;;;;;;5.28;0.82;;;;;;;;;;5030346;28;20139;-56
2023/01/12 04:45:43;;;;;;;4.88;0.70;;;;;;;;;;5024991;28;20585;-56
2023/01/12 04:48:09;;;;;;;5.55;1.10;;;;;;;;;;5025277;28;20067;-55
2023/01/12 04:50:35;;;;;;;6.22;0.90;;;;;;;;;;5024250;28;20025;-56
2023/01/12 04:53:01;;;;;;;5.80;0.82;;;;;;;;;;5028386;28;20155;-56
2023/01/12 04:55:26;;;;;;;6.88;1.05;;;;;;;;;;5025890;28;20045;-55
2023/01/12 04:57:52;;;;;;;4.32;1.10;;;;;;;;;;5024350;28;20077;-56
2023/01/12 05:00:17;;;;;;;5.15;0.80;;;;;;;;;;5029467;28;20033;-56
2023/01/12 05:02:42;;;;;;;5.53;1.08;;;;;;;;;;5030571;28;20075;-56
2023/01/12 05:05:08;;;;;;;6.00;0.98;;;;;;;;;;5024910;28;20017;-56
2023/01/12 05:07:33;;;;;;;6.90;1.00;;;;;;;;;;5032750;28;20044;-56
2023/01/12 05:12:41;;;;;;;6.38;1.10;;;;;;;;;;5030760;28;20036;-56
2023/01/12 05:15:07;;;;;;;5.57;1.05;;;;;;;;;;5029259;28;20021;-55
2023/01/12 05:17:32;;;;;;;6.53;1.60;;;;;;;;;;5026507;28;20068;-55
2023/01/12 05:19:57;;;;;;;7.13;1.00;;;;;;;;;;5025771;28;20423;-56
2023/01/12 05:22:22;;;;;;;4.53;1.00;;;;;;;;;;5025140;28;20447;-55
2023/01/12 05:24:47;;;;;;;5.63;0.75;;;;;;;;;;5028325;28;20083;-56
2023/01/12 05:27:13;;;;;;;5.47;0.90;;;;;;;;;;5025516;28;20037;-56
2023/01/12 05:29:38;;;;;;;5.57;0.95;;;;;;;;;;5028245;28;20033;-56
2023/01/12 05:32:03;;;;;;;5.37;1.00;;;;;;;;;;5018456;28;20022;-56
2023/01/12 05:34:28;;;;;;;7.32;1.42;;;;;;;;;;5014887;28;20475;-54
2023/01/12 05:36:53;;;;;;;5.72;1.13;;;;;;;;;;5023604;28;20017;-54
2023/01/12 05:39:20;;;;;;;2.97;0.70;;;;;;;;;;5029640;28;20025;-54
2023/01/12 05:44:29;;;;;;;8.48;1.10;;;;;;;;;;5028130;28;20506;-55
2023/01/12 05:46:54;;;;;;;4.27;1.00;;;;;;;;;;5035720;28;20021;-54
2023/01/12 05:49:20;;;;;;;7.10;1.43;;;;;;;;;;5027258;28;20043;-55
2023/01/12 05:51:45;;;;;;;4.20;0.90;;;;;;;;;;5031078;28;20464;-55
2023/01/12 05:54:10;;;;;;;5.57;0.82;;;;;;;;;;5022150;28;20480;-54
2023/01/12 05:56:35;;;;;;;6.07;0.90;;;;;;;;;;5019467;28;20025;-56
2023/01/12 05:59:03;;;;;;;6.18;0.73;;;;;;;;;;5021638;28;20013;-56
2023/01/12 06:01:28;;;;;;;8.27;1.00;;;;;;;;;;5018957;28;20033;-56
2023/01/12 06:03:56;;;;;;;8.82;1.55;;;;;;;;;;5025453;28;20104;-55
2023/01/12 06:06:22;;;;;;;7.20;1.10;;;;;;;;;;5023073;28;20104;-55
2023/01/12 06:08:48;;;;;;;7.45;1.25;;;;;;;;;;5016204;28;20069;-56
2023/01/12 06:13:58;;;;;;;6.30;1.00;;;;;;;;;;5023261;28;20130;-56
2023/01/12 06:16:24;;;;;;;8.00;1.63;;;;;;;;;;5015971;28;20658;-56
2023/01/12 06:18:50;;;;;;;6.03;1.00;;;;;;;;;;5026825;28;20026;-56
2023/01/12 06:21:16;;;;;;;5.00;0.90;;;;;;;;;;5032517;28;20160;-55
2023/01/12 06:23:41;;;;;;;6.97;1.40;;;;;;;;;;5028913;28;20104;-56
2023/01/12 06:26:07;;;;;;;5.55;1.13;;;;;;;;;;5023564;28;22499;-55
2023/01/12 06:28:32;;;;;;;9.95;1.33;;;;;;;;;;5041214;28;20423;-55
2023/01/12 06:30:58;;;;;;;9.33;1.30;;;;;;;;;;5034101;28;20013;-56
2023/01/12 06:33:23;;;;;;;6.13;1.00;;;;;;;;;;5033574;28;20053;-54
2023/01/12 06:35:48;;;;;;;4.80;0.90;;;;;;;;;;5033401;28;20057;-56
2023/01/12 06:38:14;;;;;;;6.63;1.10;;;;;;;;;;5034247;28;20071;-57
2023/01/12 06:40:39;;;;;;;5.17;1.00;;;;;;;;;;5029991;28;20475;-59
2023/01/12 06:43:04;;;;;;;5.63;0.90;;;;;;;;;;5028226;28;20064;-55
2023/01/12 06:45:29;;;;;;;5.68;1.05;;;;;;;;;;5029931;28;20029;-55
2023/01/12 06:47:56;;;;;;;6.30;1.20;;;;;;;;;;5023287;28;20033;-54
2023/01/12 06:50:21;;;;;;;7.85;1.10;;;;;;;;;;5029586;28;20025;-54
2023/01/12 06:52:46;;;;;;;8.60;1.20;;;;;;;;;;5026236;28;20386;-55
2023/01/12 06:55:11;;;;;;;6.13;1.02;;;;;;;;;;5032558;28;20051;-57
2023/01/12 06:57:36;;;;;;;5.80;1.20;;;;;;;;;;5031668;28;20041;-56
2023/01/12 07:00:02;;;;;;;4.97;1.13;;;;;;;;;;5031113;28;20387;-56
2023/01/12 07:02:27;;;;;;;5.88;1.20;;;;;;;;;;5028704;28;20033;-54
2023/01/12 07:04:52;;;;;;;7.03;1.20;;;;;;;;;;5026179;28;20013;-55
2023/01/12 07:07:18;;;;;;;5.10;1.00;;;;;;;;;;5027460;28;20524;-56
2023/01/12 07:09:44;;;;;;;4.15;1.00;;;;;;;;;;5029784;28;20051;-56
2023/01/12 07:12:09;;;;;;;9.67;1.20;;;;;;;;;;5031250;28;20025;-56
2023/01/12 07:14:34;;;;;;;7.23;1.30;;;;;;;;;;5026721;28;20433;-55
2023/01/12 07:16:59;;;;;;;5.50;1.00;;;;;;;;;;5027086;28;20057;-56
2023/01/12 07:19:24;;;;;;;8.00;1.43;;;;;;;;;;5033058;28;20104;-54
2023/01/12 07:21:50;;;;;;;8.60;1.50;;;;;;;;;;5030840;28;20572;-55
2023/01/12 07:24:15;;;;;;;6.78;1.10;;;;;;;;;;5029874;28;20021;-55
2023/01/12 07:26:40;;;;;;;6.40;1.42;;;;;;;;;;5025855;28;20052;-54
2023/01/12 07:29:05;;;;;;;6.97;1.40;;;;;;;;;;5030040;28;20474;-56
2023/01/12 07:31:30;;;;;;;9.73;1.57;;;;;;;;;;5027219;28;20025;-56
2023/01/12 07:33:56;;;;;;;6.72;1.45;;;;;;;;;;5023327;28;20041;-54
2023/01/12 07:36:21;;;;;;;6.03;1.53;;;;;;;;;;5025156;28;20079;-54
2023/01/12 07:38:46;;;;;;;6.18;1.30;;;;;;;;;;5026888;28;20022;-54
2023/01/12 07:42:22;;;;;;;11.20;1.63;;;;;;;;;;5031438;28;20513;-55
2023/01/12 07:43:57;;;;;;;6.10;1.20;;;;;;;;;;5032233;28;20026;-54
2023/01/12 07:46:22;;;;;;;7.03;1.40;;;;;;;;;;5032535;28;20020;-56
2023/01/12 07:48:48;;;;;;;5.40;1.45;;;;;;;;;;5032247;28;20402;-55
2023/01/12 07:51:13;;;;;;;5.87;1.37;;;;;;;;;;5032655;28;20039;-55
2023/01/12 07:53:38;;;;;;;9.23;1.77;;;;;;;;;;5032044;28;20599;-55
2023/01/12 07:56:03;;;;;;;5.60;1.33;;;;;;;;;;5036438;28;20039;-55
2023/01/12 07:58:29;;;;;;;7.97;1.80;;;;;;;;;;5034047;28;20079;-56
2023/01/12 08:00:58;;;;;;;6.70;1.70;;;;;;;;;;5037100;28;20025;-56
2023/01/12 08:03:23;;;;;;;9.27;1.98;;;;;;;;;;5034020;28;20017;-56
2023/01/12 08:05:48;;;;;;;5.45;1.60;;;;;;;;;;5033133;28;20542;-55
2023/01/12 08:08:13;;;;;;;11.33;2.50;;;;;;;;;;5031349;28;20037;-54
2023/01/12 08:10:39;;;;;;;8.00;2.05;;;;;;;;;;5041554;28;20052;-55
2023/01/12 08:13:04;;;;;;;12.85;2.55;;;;;;;;;;5033492;28;20068;-55
2023/01/12 08:15:32;;;;;;;7.20;2.25;;;;;;;;;;5039828;28;20044;-55
2023/01/12 08:17:59;;;;;;;9.32;2.05;;;;;;;;;;5032000;28;20486;-55
2023/01/12 08:20:28;;;;;;;8.15;1.40;;;;;;;;;;5032206;28;20029;-54
2023/01/12 08:22:56;;;;;;;8.32;1.60;;;;;;;;;;5032124;28;20509;-55
2023/01/12 08:25:25;;;;;;;7.95;1.25;;;;;;;;;;5038896;28;20657;-55
2023/01/12 08:27:52;;;;;;;6.40;1.10;;;;;;;;;;5046054;28;20082;-56
2023/01/12 08:30:20;;;;;;;7.03;0.88;;;;;;;;;;5051781;28;20060;-56
2023/01/12 08:32:45;;;;;;;5.65;1.25;;;;;;;;;;5051370;28;20489;-56
2023/01/12 08:35:12;;;;;;;8.77;1.40;;;;;;;;;;5051120;28;20064;-55
2023/01/12 08:37:37;;;;;;;12.60;1.77;;;;;;;;;;5048938;28;20048;-55
2023/01/12 08:40:03;;;;;;;6.85;1.50;;;;;;;;;;5037965;28;20065;-56
2023/01/12 08:42:29;;;;;;;10.05;1.58;;;;;;;;;;5031281;28;20470;-56
2023/01/12 08:44:54;;;;;;;5.07;1.30;;;;;;;;;;5031477;28;20061;-55
2023/01/12 08:47:27;;;;;;;4.90;1.10;;;;;;;;;;5031236;28;20037;-54
2023/01/12 08:49:52;;;;;;;;;;;;;;;;;;5032000;28;20525;-54
2023/01/12 08:52:17;;;;;;;4.93;1.00;;;;;;;;;;5031416;28;20319;-54
2023/01/12 08:54:42;;;;;;;6.30;1.00;;;;;;;;;;5035088;28;20021;-55
2023/01/12 08:57:07;;;;;;;5.35;1.02;;;;;;;;;;5033611;28;20017;-55
2023/01/12 08:59:33;;;;;;;7.82;0.85;;;;;;;;;;5031262;28;20556;-55
2023/01/12 09:01:58;;;;;;;8.27;0.80;;;;;;;;;;5031295;28;20022;-56
2023/01/12 09:04:23;;;;;;;5.87;0.80;;;;;;;;;;5031031;28;20508;-55
2023/01/12 09:06:48;;;;;;;4.00;0.80;;;;;;;;;;5030221;28;20025;-56
2023/01/12 09:09:15;;;;;;;6.00;1.20;;;;;;;;;;5038663;28;20067;-55
2023/01/12 09:11:41;;;;;;;6.50;0.90;;;;;;;;;;5030967;28;20156;-54
2023/01/12 09:14:06;;;;;;;4.78;1.00;;;;;;;;;;5030450;28;20056;-55
2023/01/12 09:16:32;;;;;;;3.72;0.65;;;;;;;;;;5028684;28;20017;-55
2023/01/12 09:18:57;;;;;;;5.30;0.77;;;;;;;;;;5028970;28;20036;-53
2023/01/12 09:21:24;;;;;;;5.03;0.80;;;;;;;;;;5028280;28;20163;-56
2023/01/12 09:23:49;;;;;;;5.43;0.90;;;;;;;;;;5035314;28;20044;-56
2023/01/12 09:26:15;;;;;;;4.63;1.00;;;;;;;;;;5031516;28;20382;-55
2023/01/12 09:28:43;;;;;;;4.38;0.85;;;;;;;;;;5031756;28;20041;-56
2023/01/12 09:31:09;;;;;;;6.85;0.80;;;;;;;;;;5030591;28;20017;-55
2023/01/12 09:33:35;;;;;;;6.35;0.80;;;;;;;;;;5030484;28;20057;-55
2023/01/12 09:36:02;;;;;;;5.90;0.90;;;;;;;;;;5028810;28;20021;-56
2023/01/12 09:38:27;;;;;;;;;;;;;;;;;;5030149;28;20022;-55
2023/01/12 09:40:53;;;;;;;4.80;0.88;;;;;;;;;;5036510;28;19915;-56
2023/01/12 09:48:45;;;;;;;3.28;0.63;;;;;;;;;;5010554;28;20057;-55
2023/01/12 09:51:23;;;;;;;3.93;0.77;;;;;;;;;;5010842;28;20040;-55
2023/01/12 09:53:49;;;;;;;4.43;0.73;;;;;;;;;;5010618;28;20050;-55
2023/01/12 09:56:24;;;;;;;6.57;0.80;;;;;;;;;;5015049;28;20103;-56
2023/01/12 09:59:09;;;;;;;4.63;0.90;;;;;;;;;;5039550;28;20025;-55
2023/01/12 10:01:35;;;;;;;3.72;0.73;;;;;;;;;;5031540;28;20029;-55
2023/01/12 10:04:02;;;;;;;3.95;0.70;;;;;;;;;;5030138;28;20025;-56
2023/01/12 10:06:27;;;;;;;4.72;0.88;;;;;;;;;;5030011;28;20017;-56
2023/01/12 10:08:56;;;;;;;4.05;0.70;;;;;;;;;;5030273;28;20501;-56
2023/01/12 10:11:29;;;;;;;3.50;0.60;;;;;;;;;;5029858;28;20494;-56
2023/01/12 10:13:54;;;;;;;;;;;;;;;;;;5029263;28;20072;-56
2023/01/12 10:16:39;;;;;;;5.00;0.80;;;;;;;;;;5020137;28;19952;-56
2023/01/12 10:19:10;;;;;;;3.13;0.60;;;;;;;;;;5015472;28;20084;-56
2023/01/12 10:21:35;;;;;;;3.45;0.65;;;;;;;;;;5029920;28;20108;-55
2023/01/12 10:24:00;;;;;;;6.70;0.73;;;;;;;;;;5029834;28;20105;-56
2023/01/12 10:26:30;;;;;;;4.45;1.00;;;;;;;;;;5029986;28;20535;-55
2023/01/12 10:28:57;;;;;;;3.95;0.80;;;;;;;;;;5029179;28;20037;-56
2023/01/12 10:31:23;;;;;;;4.65;0.85;;;;;;;;;;5037129;28;20021;-54
2023/01/12 10:34:01;;;;;;;4.55;0.70;;;;;;;;;;5033768;28;20020;-55
2023/01/12 10:36:28;;;;;;;8.13;1.00;;;;;;;;;;5020115;28;20047;-55
2023/01/12 10:38:59;;;;;;;3.22;0.77;;;;;;;;;;5028279;28;20009;-56
2023/01/12 10:41:25;;;;;;;5.72;1.10;;;;;;;;;;5037610;28;20037;-55
2023/01/12 10:43:53;;;;;;;4.47;0.70;;;;;;;;;;5030000;28;20064;-56
2023/01/12 10:46:20;;;;;;;4.40;0.70;;;;;;;;;;5030025;28;20025;-55
2023/01/12 10:48:47;;;;;;;3.78;0.68;;;;;;;;;;5029903;28;20043;-55
2023/01/12 10:51:28;;;;;;;4.43;0.65;;;;;;;;;;5032233;28;20028;-55
2023/01/12 10:53:59;;;;;;;5.72;0.63;;;;;;;;;;5028276;28;20083;-56
2023/01/12 10:56:30;;;;;;;2.72;0.65;;;;;;;;;;5037900;28;20032;-54
2023/01/12 10:58:58;;;;;;;7.85;1.20;;;;;;;;;;5030510;28;20014;-54
2023/01/12 11:01:23;;;;;;;3.65;0.80;;;;;;;;;;5031029;28;20438;-56
2023/01/12 11:03:49;;;;;;;3.73;0.80;;;;;;;;;;5033002;28;20021;-53
2023/01/12 11:06:16;;;;;;;4.30;0.70;;;;;;;;;;5033304;28;20021;-55
2023/01/12 11:08:42;;;;;;;5.00;0.80;;;;;;;;;;5032155;28;20551;-55
2023/01/12 11:11:14;;;;;;;3.13;0.60;;;;;;;;;;5041138;28;20128;-55
2023/01/12 11:13:39;;;;;;;4.30;0.70;;;;;;;;;;5033197;28;20777;-54
2023/01/12 11:16:15;;;;;;;5.63;0.80;;;;;;;;;;5033404;28;20021;-56
2023/01/12 11:18:45;;;;;;;6.63;0.80;;;;;;;;;;5033095;28;20451;-56
2023/01/12 11:21:13;;;;;;;6.90;0.98;;;;;;;;;;5033033;28;20076;-55
2023/01/12 11:23:41;;;;;;;5.53;0.75;;;;;;;;;;5032581;28;20029;-56
2023/01/12 11:26:16;;;;;;;4.32;0.70;;;;;;;;;;5032520;28;20017;-56
2023/01/12 11:28:42;;;;;;;6.05;0.77;;;;;;;;;;5037006;28;20041;-54
2023/01/12 11:31:18;;;;;;;4.80;0.90;;;;;;;;;;5031363;28;20053;-55
2023/01/12 11:33:45;;;;;;;5.25;0.70;;;;;;;;;;5032716;28;20018;-55
2023/01/12 11:36:15;;;;;;;4.43;0.65;;;;;;;;;;5032646;28;20022;-55
2023/01/12 11:39:00;;;;;;;4.35;0.57;;;;;;;;;;5033026;28;20168;-54
2023/01/12 11:41:34;;;;;;;5.50;0.70;;;;;;;;;;5031073;28;20108;-56
2023/01/12 11:44:17;;;;;;;4.10;0.70;;;;;;;;;;5039814;28;20017;-54
2023/01/12 11:46:45;;;;;;;5.38;0.85;;;;;;;;;;5023491;28;20383;-56
2023/01/12 11:49:19;;;;;;;2.60;0.70;;;;;;;;;;5041004;28;20057;-55
2023/01/12 11:51:47;;;;;;;2.28;0.50;;;;;;;;;;5031563;28;20025;-55
2023/01/12 11:54:14;;;;;;;3.10;0.63;;;;;;;;;;5041250;28;20027;-56
2023/01/12 11:56:54;;;;;;;2.90;0.60;;;;;;;;;;5052062;28;20063;-55
2023/01/12 11:59:44;;;;;;;4.07;0.70;;;;;;;;;;5052605;28;20340;-55
2023/01/12 12:02:20;;;;;;;4.32;0.60;;;;;;;;;;5012458;28;20100;-55
2023/01/12 12:04:48;;;;;;;3.15;0.50;;;;;;;;;;5011961;28;20022;-55
2023/01/12 12:07:19;;;;;;;4.50;0.82;;;;;;;;;;5029009;28;20105;-55
2023/01/12 12:09:47;;;;;;;4.07;0.70;;;;;;;;;;5040448;28;20476;-56
2023/01/12 12:12:24;;;;;;;3.58;0.60;;;;;;;;;;5032588;28;20021;-56
2023/01/12 12:15:07;;;;;;;2.85;0.47;;;;;;;;;;5031312;28;20025;-56
2023/01/12 12:17:51;;;;;;;5.13;0.70;;;;;;;;;;5031906;28;20374;-56
2023/01/12 12:20:28;;;;;;;3.13;0.45;;;;;;;;;;5031038;28;20037;-55
2023/01/12 12:22:59;;;;;;;3.00;0.80;;;;;;;;;;5029462;28;20022;-54
2023/01/12 12:25:29;;;;;;;2.22;0.50;;;;;;;;;;5033368;28;20021;-56
2023/01/12 12:28:05;;;;;;;2.63;0.45;;;;;;;;;;5040260;28;20061;-57
2023/01/12 12:30:39;;;;;;;3.03;0.50;;;;;;;;;;5034244;28;20530;-55
2023/01/12 12:33:14;;;;;;;1.75;0.40;;;;;;;;;;5017422;28;20029;-56
2023/01/12 12:35:39;;;;;;;2.22;0.50;;;;;;;;;;5031115;28;20371;-56
2023/01/12 12:38:16;;;;;;;2.15;0.40;;;;;;;;;;5031313;28;20433;-55
2023/01/12 12:46:25;;;;;;;1.58;0.60;;;;;;;;;;5039323;28;20126;-55
2023/01/12 12:49:01;;;;;;;3.03;0.60;;;;;;;;;;5031390;28;20064;-55
2023/01/12 12:51:28;;;;;;;2.70;0.40;;;;;;;;;;5031018;28;20332;-55
2023/01/12 12:53:53;;;;;;;;;;;;;;;;;;5031646;28;20028;-54
2023/01/12 12:56:23;;;;;;;2.10;0.50;;;;;;;;;;5031145;28;19905;-55
2023/01/12 12:58:50;;;;;;;2.58;0.60;;;;;;;;;;5030909;28;20033;-56
2023/01/12 13:01:18;;;;;;;2.40;0.50;;;;;;;;;;5030408;28;20071;-56
2023/01/12 13:03:44;;;;;;;1.85;0.57;;;;;;;;;;5050895;28;20021;-56
2023/01/12 13:06:13;;;;;;;2.90;0.60;;;;;;;;;;5050718;28;20024;-57
2023/01/12 13:08:39;;;;;;;1.85;0.40;;;;;;;;;;5050811;28;20120;-55
2023/01/12 13:11:04;;;;;;;1.53;0.40;;;;;;;;;;5041767;28;20355;-56
2023/01/12 13:13:31;;;;;;;3.78;0.75;;;;;;;;;;5032658;28;20024;-54
2023/01/12 13:16:08;;;;;;;3.05;0.47;;;;;;;;;;5034844;28;20041;-54
2023/01/12 13:18:39;;;;;;;3.67;0.50;;;;;;;;;;5031600;28;20032;-55
2023/01/12 13:21:24;;;;;;;2.30;0.40;;;;;;;;;;5031387;28;20061;-55
2023/01/12 13:23:50;;;;;;;3.45;0.63;;;;;;;;;;5030385;28;20018;-54
2023/01/12 13:26:45;;;;;;;2.42;0.60;;;;;;;;;;5029527;28;20031;-55
2023/01/12 13:29:22;;;;;;;5.05;0.90;;;;;;;;;;5000529;28;20050;-55
2023/01/12 13:32:11;;;;;;;4.07;0.70;;;;;;;;;;5011098;28;20025;-55
2023/01/12 13:34:36;;;;;;;3.97;0.60;;;;;;;;;;5000123;28;20049;-54
2023/01/12 13:37:07;;;;;;;4.32;0.70;;;;;;;;;;5010932;28;20022;-54
2023/01/12 13:39:35;;;;;;;1.55;0.43;;;;;;;;;;5021193;28;20030;-55
2023/01/12 13:44:44;;;;;;;2.65;0.45;;;;;;;;;;5029137;28;20028;-55
2023/01/12 13:47:15;;;;;;;1.67;0.32;;;;;;;;;;5040005;28;20016;-54
2023/01/12 13:49:48;;;;;;;2.08;0.50;;;;;;;;;;5051001;28;20637;-55
2023/01/12 13:52:30;;;;;;;1.27;0.40;;;;;;;;;;5050764;28;20029;-56
2023/01/12 13:54:55;;;;;;;1.65;0.50;;;;;;;;;;5045208;28;20025;-55
2023/01/12 13:57:22;;;;;;;1.30;0.37;;;;;;;;;;5038344;28;20017;-56
2023/01/12 13:59:57;;;;;;;3.75;0.50;;;;;;;;;;5030545;28;20025;-55
2023/01/12 14:02:22;;;;;;;3.30;0.65;;;;;;;;;;5030358;28;20028;-56
2023/01/12 14:04:52;;;;;;;3.42;0.85;;;;;;;;;;5030135;28;20013;-55
2023/01/12 14:07:21;;;;;;;2.13;0.60;;;;;;;;;;5029934;28;20025;-56
2023/01/12 14:09:58;;;;;;;3.33;0.63;;;;;;;;;;5030008;28;20500;-54
2023/01/12 14:12:29;;;;;;;3.38;0.95;;;;;;;;;;5029047;28;20033;-55
2023/01/12 14:17:56;;;;;;;2.55;0.70;;;;;;;;;;5030487;28;20028;-55
2023/01/12 14:20:23;;;;;;;4.90;0.80;;;;;;;;;;5030230;28;20373;-55
2023/01/12 14:22:48;;;;;;;1.75;0.57;;;;;;;;;;5029914;28;20529;-56
2023/01/12 14:25:13;;;;;;;3.17;0.50;;;;;;;;;;5030131;28;20120;-55
2023/01/12 14:27:46;;;;;;;2.63;0.50;;;;;;;;;;5029445;28;20048;-55
2023/01/12 14:30:11;;;;;;;2.45;0.50;;;;;;;;;;5038075;28;20108;-55
2023/01/12 14:32:40;;;;;;;2.58;0.77;;;;;;;;;;5030134;28;20104;-56
2023/01/12 14:35:12;;;;;;;3.50;0.73;;;;;;;;;;5028636;28;20121;-56
2023/01/12 14:37:38;;;;;;;3.17;0.70;;;;;;;;;;5030086;28;20025;-56
2023/01/12 14:40:03;;;;;;;5.28;1.08;;;;;;;;;;5037489;28;20092;-56
2023/01/12 14:48:18;;;;;;;3.85;0.77;;;;;;;;;;5030576;28;20086;-55
2023/01/12 14:50:56;;;;;;;4.00;0.75;;;;;;;;;;5032052;28;20022;-56
2023/01/12 14:53:31;;;;;;;3.50;0.80;;;;;;;;;;5033044;28;20157;-55
2023/01/12 14:56:04;;;;;;;4.22;1.00;;;;;;;;;;5032409;28;20018;-55
2023/01/12 14:58:29;;;;;;;5.38;1.20;;;;;;;;;;5041623;28;20025;-55
2023/01/12 15:00:55;;;;;;;3.03;0.88;;;;;;;;;;5033630;28;20379;-55
2023/01/12 15:03:22;;;;;;;5.70;1.37;;;;;;;;;;5033274;28;20025;-55
2023/01/12 15:05:53;;;;;;;4.18;0.93;;;;;;;;;;5032872;28;20029;-56
2023/01/12 15:08:25;;;;;;;3.80;1.08;;;;;;;;;;5033487;28;20037;-56
2023/01/12 15:10:58;;;;;;;3.67;1.10;;;;;;;;;;5033476;28;20040;-55
2023/01/12 15:13:23;;;;;;;4.95;0.80;;;;;;;;;;5034937;28;20220;-56
2023/01/12 15:27:09;;;;;;;2.85;0.82;;;;;;;;;;5041205;28;20083;-55
2023/01/12 15:29:34;;;;;;;2.78;0.70;;;;;;;;;;5033231;28;20125;-55
2023/01/12 15:32:00;;;;;;;5.77;1.00;;;;;;;;;;5033141;28;20092;-55
2023/01/12 15:34:25;;;;;;;3.00;0.85;;;;;;;;;;5032877;28;20052;-56
2023/01/12 15:36:50;;;;;;;3.45;1.15;;;;;;;;;;5032821;28;20541;-55
2023/01/12 15:39:16;;;;;;;2.95;1.00;;;;;;;;;;5031711;28;20048;-55
2023/01/12 15:44:25;;;;;;;2.35;0.80;;;;;;;;;;5032707;28;20079;-56
2023/01/12 15:46:50;;;;;;;7.57;1.87;;;;;;;;;;5032717;28;20478;-54